Flight Track Log - Related Links

Times and Time Zones

All times are in EDT time to prevent confusion due to time zone crossing. See the RPA4900 flight status page for this flight to view local times or setup timezone preferences in your user account.

Time Position Orientation Groundspeed Altitude Reporting Facility
EDT Latitude Longitude Course Direction KTS MPH feet Rate Location/Type
Sun 09:36:52 PM 40.6333 -74.2000 227° Southwest 207 238 2,700  Level New York TRACON
Sun 09:37:52 PM 40.6333 -74.2833 270° West 207 238 5,400 2,550 Climbing New York TRACON
Sun 09:38:00 PM 40.5208 -74.4618 246° West  Level Estimated
Sun 09:38:52 PM 40.6333 -74.3500 270° West 209 241 7,800  Level New York TRACON
Sun 09:39:00 PM 40.4634 -74.5592 255° West  Level Estimated
Sun 09:39:46 PM 40.6333 -74.4333 270° West 216 249 9,900  Level New York TRACON
Sun 09:40:00 PM 40.4059 -74.6564 232° Southwest  Level Estimated
Sun 09:41:00 PM 40.3483 -74.7535 227° Southwest  Level Estimated
Sun 09:41:27 PM 40.5992 -74.5483 249° West 219 252 12,800  Level New York Center
Sun 09:42:27 PM 40.5697 -74.6206 242° Southwest 219 252 14,000 600 Climbing New York Center
Sun 09:43:27 PM 40.5314 -74.7083 240° Southwest 256 295 14,000  Level New York Center
Sun 09:44:27 PM 40.4931 -74.7964 240° Southwest 297 342 14,000  Level New York Center
Sun 09:45:27 PM 40.4475 -74.9083 242° Southwest 316 364 14,000  Level New York Center
Sun 09:46:27 PM 40.4047 -74.9956 237° Southwest 322 371 14,000  Level New York Center
Sun 09:47:27 PM 40.3389 -75.0894 227° Southwest 322 371 14,000  Level New York Center
Sun 09:48:27 PM 40.2772 -75.1728 226° Southwest 327 376 14,000  Level New York Center
Sun 09:49:27 PM 40.2156 -75.2614 228° Southwest 327 376 14,000 50 Level New York Center
Sun 09:50:27 PM 40.1519 -75.3469 226° Southwest 339 390 14,100 50 Climbing New York Center
Sun 09:51:27 PM 40.0947 -75.4244 226° Southwest 334 384 14,100  Level New York Center
Sun 09:52:27 PM 40.0261 -75.5203 227° Southwest 334 384 14,100  Level New York Center
Sun 09:53:27 PM 39.9731 -75.5950 227° Southwest 334 384 14,100  Level New York Center
Sun 09:54:27 PM 39.9067 -75.6881 227° Southwest 334 384 14,100  Level New York Center
Sun 09:55:27 PM 39.8633 -75.7769 238° Southwest 329 379 14,100 -650 Level New York Center
Sun 09:57:04 PM 39.7833 -75.9333 236° Southwest 320 368 12,400 -1,032 Descending Potomac TRACON
Sun 09:58:04 PM 39.7333 -76.0333 237° Southwest 310 357 11,400 -667 Descending Potomac TRACON
Sun 09:59:10 PM 39.6833 -76.1333 237° Southwest 299 344 11,000 -300 Descending Potomac TRACON
Sun 10:00:04 PM 39.6500 -76.2167 243° Southwest 301 346 10,800 -667 Descending Potomac TRACON
Sun 10:00:58 PM 39.6167 -76.3000 243° Southwest 281 323 9,800 -991 Descending Potomac TRACON
Sun 10:01:59 PM 39.5833 -76.3833 243° Southwest 265 305 8,900 -939 Descending Potomac TRACON
Sun 10:02:53 PM 39.5500 -76.4667 243° Southwest 260 299 8,000 -1,000 Descending Potomac TRACON
Sun 10:03:59 PM 39.5167 -76.5500 243° Southwest 255 293 6,900 -1,053 Descending Potomac TRACON
Sun 10:05:04 PM 39.4833 -76.6500 247° West 253 291 5,700 -1,008 Descending Potomac TRACON
Sun 10:05:58 PM 39.4500 -76.7167 237° Southwest 248 285 4,900 -810 Descending Potomac TRACON
Sun 10:07:10 PM 39.4167 -76.8167 247° West 241 277 4,000 -406 Descending Potomac TRACON
Sun 10:08:11 PM 39.3833 -76.8833 237° Southwest 239 275 4,000 -300 Level Potomac TRACON
Sun 10:09:10 PM 39.3500 -76.9500 237° Southwest 244 281 3,400 -526 Descending Potomac TRACON
Sun 10:10:05 PM 39.3000 -76.9000 142° Southeast 220 253 3,000 -545 Descending Potomac TRACON
Sun 10:11:11 PM 39.2500 -76.8500 142° Southeast 205 236 2,300 -737 Descending Potomac TRACON
Sun 10:11:59 PM 39.2167 -76.8167 142° Southeast 188 216 1,600 -579 Descending Potomac TRACON
Sun 10:13:05 PM 39.1833 -76.7667 131° Southeast 148 170 1,200 -409 Descending Potomac TRACON
Sun 10:14:11 PM 39.1833 -76.7167 90° East 125 144 700 -455 Descending Potomac TRACON

Login

Don't have an account? Register now (free) for customized features, flight alerts, and more!